sensor_id;sensor_type;location;lat;lon;timestamp;pressure;altitude;pressure_sealevel;temperature;humidity
26697;BME280;14312;52.614;13.496;2022-08-30T00:00:08;101432.84;;;22.85;49.89
26697;BME280;14312;52.614;13.496;2022-08-30T00:03:13;101437.34;;;22.76;49.90
26697;BME280;14312;52.614;13.496;2022-08-30T00:05:59;101439.56;;;22.74;50.18
26697;BME280;14312;52.614;13.496;2022-08-30T00:08:46;101447.78;;;22.69;50.24
26697;BME280;14312;52.614;13.496;2022-08-30T00:11:33;101437.53;;;22.66;50.13
26697;BME280;14312;52.614;13.496;2022-08-30T00:14:19;101440.84;;;22.63;50.20
26697;BME280;14312;52.614;13.496;2022-08-30T00:17:05;101437.13;;;22.59;50.16
26697;BME280;14312;52.614;13.496;2022-08-30T00:19:51;101439.34;;;22.57;50.38
26697;BME280;14312;52.614;13.496;2022-08-30T00:22:38;101438.31;;;22.53;50.32
26697;BME280;14312;52.614;13.496;2022-08-30T00:25:24;101439.44;;;22.52;50.33
26697;BME280;14312;52.614;13.496;2022-08-30T00:28:11;101437.31;;;22.49;50.27
26697;BME280;14312;52.614;13.496;2022-08-30T00:30:57;101445.22;;;22.45;50.34
26697;BME280;14312;52.614;13.496;2022-08-30T00:33:43;101451.00;;;22.44;50.38
26697;BME280;14312;52.614;13.496;2022-08-30T00:36:29;101448.34;;;22.39;50.53
26697;BME280;14312;52.614;13.496;2022-08-30T00:39:15;101450.56;;;22.37;50.46
26697;BME280;14312;52.614;13.496;2022-08-30T00:42:00;101453.88;;;22.34;50.52
26697;BME280;14312;52.614;13.496;2022-08-30T00:44:47;101453.34;;;22.32;50.66
26697;BME280;14312;52.614;13.496;2022-08-30T00:47:33;101455.06;;;22.27;50.71
26697;BME280;14312;52.614;13.496;2022-08-30T00:50:22;101450.75;;;22.26;50.86
26697;BME280;14312;52.614;13.496;2022-08-30T00:53:10;101447.50;;;22.24;51.05
26697;BME280;14312;52.614;13.496;2022-08-30T00:55:59;101442.69;;;22.21;51.07
26697;BME280;14312;52.614;13.496;2022-08-30T00:58:48;101446.50;;;22.20;51.06
26697;BME280;14312;52.614;13.496;2022-08-30T01:01:35;101448.22;;;22.16;50.95
26697;BME280;14312;52.614;13.496;2022-08-30T01:04:23;101450.13;;;22.16;50.99
26697;BME280;14312;52.614;13.496;2022-08-30T01:07:10;101451.50;;;22.13;50.96
26697;BME280;14312;52.614;13.496;2022-08-30T01:09:56;101455.31;;;22.12;51.05
26697;BME280;14312;52.614;13.496;2022-08-30T01:12:43;101454.53;;;22.12;51.13
26697;BME280;14312;52.614;13.496;2022-08-30T01:15:30;101455.94;;;22.09;51.28
26697;BME280;14312;52.614;13.496;2022-08-30T01:18:17;101465.47;;;22.07;50.99
26697;BME280;14312;52.614;13.496;2022-08-30T01:23:54;101459.53;;;22.05;51.16
26697;BME280;14312;52.614;13.496;2022-08-30T01:26:41;101459.31;;;22.01;51.08
26697;BME280;14312;52.614;13.496;2022-08-30T01:29:28;101458.81;;;21.99;51.10
26697;BME280;14312;52.614;13.496;2022-08-30T01:32:18;101468.56;;;22.00;51.20
26697;BME280;14312;52.614;13.496;2022-08-30T01:35:06;101462.09;;;21.96;51.15
26697;BME280;14312;52.614;13.496;2022-08-30T01:37:52;101462.69;;;21.93;51.15
26697;BME280;14312;52.614;13.496;2022-08-30T01:40:38;101462.16;;;21.91;51.28
26697;BME280;14312;52.614;13.496;2022-08-30T01:43:24;101457.34;;;21.88;51.28
26697;BME280;14312;52.614;13.496;2022-08-30T01:46:13;101460.81;;;21.88;51.44
26697;BME280;14312;52.614;13.496;2022-08-30T01:48:59;101460.63;;;21.85;51.49
26697;BME280;14312;52.614;13.496;2022-08-30T01:51:45;101462.81;;;21.83;51.38
26697;BME280;14312;52.614;13.496;2022-08-30T01:54:34;101462.00;;;21.82;51.55
26697;BME280;14312;52.614;13.496;2022-08-30T01:57:22;101461.53;;;21.80;51.58
26697;BME280;14312;52.614;13.496;2022-08-30T02:00:08;101460.19;;;21.78;51.50
26697;BME280;14312;52.614;13.496;2022-08-30T02:02:54;101464.00;;;21.77;51.50
26697;BME280;14312;52.614;13.496;2022-08-30T02:05:41;101453.75;;;21.74;51.49
26697;BME280;14312;52.614;13.496;2022-08-30T02:08:28;101463.28;;;21.71;51.22
26697;BME280;14312;52.614;13.496;2022-08-30T02:11:14;101458.13;;;21.70;51.31
26697;BME280;14312;52.614;13.496;2022-08-30T02:14:00;101464.16;;;21.67;51.26
26697;BME280;14312;52.614;13.496;2022-08-30T02:16:47;101455.50;;;21.65;51.33
26697;BME280;14312;52.614;13.496;2022-08-30T02:19:32;101448.75;;;21.62;51.34
26697;BME280;14312;52.614;13.496;2022-08-30T02:22:18;101453.66;;;21.60;51.35
26697;BME280;14312;52.614;13.496;2022-08-30T02:25:06;101455.06;;;21.58;51.44
26697;BME280;14312;52.614;13.496;2022-08-30T02:27:52;101456.72;;;21.54;51.45
26697;BME280;14312;52.614;13.496;2022-08-30T02:30:38;101449.72;;;21.53;51.53
26697;BME280;14312;52.614;13.496;2022-08-30T02:33:24;101448.69;;;21.48;51.57
26697;BME280;14312;52.614;13.496;2022-08-30T02:36:10;101452.78;;;21.46;51.72
26697;BME280;14312;52.614;13.496;2022-08-30T02:38:56;101447.66;;;21.44;51.80
26697;BME280;14312;52.614;13.496;2022-08-30T02:41:42;101450.94;;;21.41;51.80
26697;BME280;14312;52.614;13.496;2022-08-30T02:44:28;101453.13;;;21.39;51.78
26697;BME280;14312;52.614;13.496;2022-08-30T02:47:14;101444.50;;;21.37;51.77
26697;BME280;14312;52.614;13.496;2022-08-30T02:50:04;101448.31;;;21.36;51.90
26697;BME280;14312;52.614;13.496;2022-08-30T02:52:51;101441.84;;;21.32;51.87
26697;BME280;14312;52.614;13.496;2022-08-30T02:55:37;101451.09;;;21.31;51.85
26697;BME280;14312;52.614;13.496;2022-08-30T02:58:23;101440.81;;;21.28;52.02
26697;BME280;14312;52.614;13.496;2022-08-30T03:01:11;101456.28;;;21.28;52.11
26697;BME280;14312;52.614;13.496;2022-08-30T03:03:58;101450.66;;;21.24;52.13
26697;BME280;14312;52.614;13.496;2022-08-30T03:06:44;101442.81;;;21.23;52.16
26697;BME280;14312;52.614;13.496;2022-08-30T03:09:30;101438.75;;;21.20;52.22
26697;BME280;14312;52.614;13.496;2022-08-30T03:12:16;101442.56;;;21.19;52.05
26697;BME280;14312;52.614;13.496;2022-08-30T03:15:06;101451.78;;;21.18;52.01
26697;BME280;14312;52.614;13.496;2022-08-30T03:17:54;101448.59;;;21.16;52.21
26697;BME280;14312;52.614;13.496;2022-08-30T03:20:40;101450.75;;;21.14;52.12
26697;BME280;14312;52.614;13.496;2022-08-30T03:23:26;101442.88;;;21.13;52.15
26697;BME280;14312;52.614;13.496;2022-08-30T03:26:12;101443.50;;;21.09;52.28
26697;BME280;14312;52.614;13.496;2022-08-30T03:28:59;101452.72;;;21.08;52.26
26697;BME280;14312;52.614;13.496;2022-08-30T03:31:45;101449.47;;;21.06;52.43
26697;BME280;14312;52.614;13.496;2022-08-30T03:34:31;101452.47;;;21.05;52.38
26697;BME280;14312;52.614;13.496;2022-08-30T03:37:17;101450.84;;;21.04;52.39
26697;BME280;14312;52.614;13.496;2022-08-30T03:40:06;101454.09;;;21.06;52.54
26697;BME280;14312;52.614;13.496;2022-08-30T03:42:53;101455.78;;;21.02;52.66
26697;BME280;14312;52.614;13.496;2022-08-30T03:45:39;101458.47;;;21.02;52.75
26697;BME280;14312;52.614;13.496;2022-08-30T03:48:26;101458.47;;;21.02;52.91
26697;BME280;14312;52.614;13.496;2022-08-30T03:51:12;101467.72;;;21.01;52.72
26697;BME280;14312;52.614;13.496;2022-08-30T03:53:58;101466.63;;;21.02;52.94
26697;BME280;14312;52.614;13.496;2022-08-30T03:56:44;101463.91;;;21.02;52.88
26697;BME280;14312;52.614;13.496;2022-08-30T03:59:30;101471.50;;;21.00;53.00
26697;BME280;14312;52.614;13.496;2022-08-30T04:02:16;101473.13;;;21.01;53.10
26697;BME280;14312;52.614;13.496;2022-08-30T04:05:02;101466.09;;;21.00;53.13
26697;BME280;14312;52.614;13.496;2022-08-30T04:07:48;101464.19;;;21.00;53.26
26697;BME280;14312;52.614;13.496;2022-08-30T04:10:34;101470.41;;;21.01;53.10
26697;BME280;14312;52.614;13.496;2022-08-30T04:13:21;101478.56;;;21.01;53.19
26697;BME280;14312;52.614;13.496;2022-08-30T04:16:08;101479.34;;;21.01;53.30
26697;BME280;14312;52.614;13.496;2022-08-30T04:18:54;101475.56;;;21.02;53.48
26697;BME280;14312;52.614;13.496;2022-08-30T04:21:39;101475.56;;;21.02;53.58
26697;BME280;14312;52.614;13.496;2022-08-30T04:24:28;101478.75;;;21.04;53.59
26697;BME280;14312;52.614;13.496;2022-08-30T04:27:14;101476.06;;;21.04;53.61
26697;BME280;14312;52.614;13.496;2022-08-30T04:30:00;101483.91;;;21.06;53.76
26697;BME280;14312;52.614;13.496;2022-08-30T04:32:46;101481.19;;;21.06;53.93
26697;BME280;14312;52.614;13.496;2022-08-30T04:35:32;101486.06;;;21.09;53.73
26697;BME280;14312;52.614;13.496;2022-08-30T04:38:18;101491.47;;;21.09;53.99
26697;BME280;14312;52.614;13.496;2022-08-30T04:41:12;101489.50;;;21.15;54.29
26697;BME280;14312;52.614;13.496;2022-08-30T04:44:01;101494.13;;;21.14;54.22
26697;BME280;14312;52.614;13.496;2022-08-30T04:46:47;101485.97;;;21.14;54.20
26697;BME280;14312;52.614;13.496;2022-08-30T04:49:34;101488.16;;;21.17;54.28
26697;BME280;14312;52.614;13.496;2022-08-30T04:52:20;101491.38;;;21.19;54.24
26697;BME280;14312;52.614;13.496;2022-08-30T04:55:06;101487.56;;;21.20;54.56
26697;BME280;14312;52.614;13.496;2022-08-30T04:57:53;101490.78;;;21.22;54.45
26697;BME280;14312;52.614;13.496;2022-08-30T05:00:42;101492.63;;;21.27;54.78
26697;BME280;14312;52.614;13.496;2022-08-30T05:03:29;101493.44;;;21.27;54.74
26697;BME280;14312;52.614;13.496;2022-08-30T05:06:16;101492.88;;;21.30;54.73
26697;BME280;14312;52.614;13.496;2022-08-30T05:09:03;101491.47;;;21.33;54.87
26697;BME280;14312;52.614;13.496;2022-08-30T05:11:48;101497.13;;;21.36;54.98
26697;BME280;14312;52.614;13.496;2022-08-30T05:14:34;101489.50;;;21.38;55.05
26697;BME280;14312;52.614;13.496;2022-08-30T05:17:20;101497.06;;;21.41;55.21
26697;BME280;14312;52.614;13.496;2022-08-30T05:20:07;101505.09;;;21.46;55.14
26697;BME280;14312;52.614;13.496;2022-08-30T05:22:54;101494.78;;;21.48;55.15
26697;BME280;14312;52.614;13.496;2022-08-30T05:25:40;101503.97;;;21.53;55.23
26697;BME280;14312;52.614;13.496;2022-08-30T05:28:26;101507.19;;;21.55;55.19
26697;BME280;14312;52.614;13.496;2022-08-30T05:31:16;101515.56;;;21.58;55.46
26697;BME280;14312;52.614;13.496;2022-08-30T05:34:02;101509.31;;;21.58;55.53
26697;BME280;14312;52.614;13.496;2022-08-30T05:36:48;101521.19;;;21.62;55.48
26697;BME280;14312;52.614;13.496;2022-08-30T05:39:34;101513.56;;;21.64;55.61
26697;BME280;14312;52.614;13.496;2022-08-30T05:42:19;101514.59;;;21.68;55.86
26697;BME280;14312;52.614;13.496;2022-08-30T05:45:06;101518.34;;;21.72;55.79
26697;BME280;14312;52.614;13.496;2022-08-30T05:47:53;101509.59;;;21.75;55.82
26697;BME280;14312;52.614;13.496;2022-08-30T05:50:39;101509.84;;;21.78;55.90
26697;BME280;14312;52.614;13.496;2022-08-30T05:53:25;101514.38;;;21.83;56.09
26697;BME280;14312;52.614;13.496;2022-08-30T05:56:13;101512.72;;;21.87;56.18
26697;BME280;14312;52.614;13.496;2022-08-30T05:59:00;101512.91;;;21.91;56.10
26697;BME280;14312;52.614;13.496;2022-08-30T06:01:46;101520.97;;;21.96;56.14
26697;BME280;14312;52.614;13.496;2022-08-30T06:04:32;101522.03;;;22.00;56.06
26697;BME280;14312;52.614;13.496;2022-08-30T06:07:17;101521.44;;;22.03;56.35
26697;BME280;14312;52.614;13.496;2022-08-30T06:10:04;101520.06;;;22.05;56.26
26697;BME280;14312;52.614;13.496;2022-08-30T06:12:51;101537.06;;;22.11;56.32
26697;BME280;14312;52.614;13.496;2022-08-30T06:15:36;101530.78;;;22.15;56.25
26697;BME280;14312;52.614;13.496;2022-08-30T06:18:22;101527.44;;;22.18;56.27
26697;BME280;14312;52.614;13.496;2022-08-30T06:21:18;101528.97;;;22.24;56.89
26697;BME280;14312;52.614;13.496;2022-08-30T06:24:06;101531.91;;;22.28;56.53
26697;BME280;14312;52.614;13.496;2022-08-30T06:26:53;101537.88;;;22.30;56.46
26697;BME280;14312;52.614;13.496;2022-08-30T06:29:39;101530.44;;;22.36;56.67
26697;BME280;14312;52.614;13.496;2022-08-30T06:32:24;101526.00;;;22.40;56.29
26697;BME280;14312;52.614;13.496;2022-08-30T06:35:10;101528.66;;;22.45;56.55
26697;BME280;14312;52.614;13.496;2022-08-30T06:37:56;101528.06;;;22.48;56.44
26697;BME280;14312;52.614;13.496;2022-08-30T06:40:42;101541.53;;;22.53;56.76
26697;BME280;14312;52.614;13.496;2022-08-30T06:43:28;101537.16;;;22.57;56.42
26697;BME280;14312;52.614;13.496;2022-08-30T06:46:35;101541.56;;;22.66;57.07
26697;BME280;14312;52.614;13.496;2022-08-30T06:49:21;101550.06;;;22.65;56.78
26697;BME280;14312;52.614;13.496;2022-08-30T06:52:07;101542.63;;;22.71;56.50
26697;BME280;14312;52.614;13.496;2022-08-30T06:54:54;101546.34;;;22.75;56.61
26697;BME280;14312;52.614;13.496;2022-08-30T06:57:40;101545.47;;;22.79;56.67
26697;BME280;14312;52.614;13.496;2022-08-30T07:00:26;101548.09;;;22.84;56.56
26697;BME280;14312;52.614;13.496;2022-08-30T07:03:13;101556.16;;;22.89;56.57
26697;BME280;14312;52.614;13.496;2022-08-30T07:05:59;101556.09;;;22.94;56.61
26697;BME280;14312;52.614;13.496;2022-08-30T07:08:45;101559.00;;;22.98;56.49
26697;BME280;14312;52.614;13.496;2022-08-30T07:11:36;101562.94;;;23.06;56.72
26697;BME280;14312;52.614;13.496;2022-08-30T07:14:23;101553.66;;;23.07;56.54
26697;BME280;14312;52.614;13.496;2022-08-30T07:17:09;101553.84;;;23.10;56.40
26697;BME280;14312;52.614;13.496;2022-08-30T07:20:13;101556.00;;;23.13;56.33
26697;BME280;14312;52.614;13.496;2022-08-30T07:23:00;101556.97;;;23.17;56.37
26697;BME280;14312;52.614;13.496;2022-08-30T07:25:47;101561.53;;;23.22;56.12
26697;BME280;14312;52.614;13.496;2022-08-30T07:28:36;101563.03;;;23.28;56.26
26697;BME280;14312;52.614;13.496;2022-08-30T07:31:22;101569.00;;;23.30;56.16
26697;BME280;14312;52.614;13.496;2022-08-30T07:34:09;101564.03;;;23.32;55.89
26697;BME280;14312;52.614;13.496;2022-08-30T07:36:55;101573.53;;;23.34;55.93
26697;BME280;14312;52.614;13.496;2022-08-30T07:39:40;101571.00;;;23.38;55.62
26697;BME280;14312;52.614;13.496;2022-08-30T07:42:26;101567.69;;;23.41;56.04
26697;BME280;14312;52.614;13.496;2022-08-30T07:45:12;101574.09;;;23.45;56.21
26697;BME280;14312;52.614;13.496;2022-08-30T07:47:58;101572.75;;;23.48;56.06
26697;BME280;14312;52.614;13.496;2022-08-30T07:50:45;101580.50;;;23.54;55.94
26697;BME280;14312;52.614;13.496;2022-08-30T07:53:31;101571.22;;;23.55;55.72
26697;BME280;14312;52.614;13.496;2022-08-30T07:56:17;101580.38;;;23.59;55.72
26697;BME280;14312;52.614;13.496;2022-08-30T07:59:03;101588.47;;;23.64;55.33
26697;BME280;14312;52.614;13.496;2022-08-30T08:01:49;101580.47;;;23.68;55.53
26697;BME280;14312;52.614;13.496;2022-08-30T08:04:35;101581.16;;;23.73;55.55
26697;BME280;14312;52.614;13.496;2022-08-30T08:07:21;101580.56;;;23.76;55.18
26697;BME280;14312;52.614;13.496;2022-08-30T08:10:07;101588.63;;;23.81;55.28
26697;BME280;14312;52.614;13.496;2022-08-30T08:12:53;101585.00;;;23.86;55.14
26697;BME280;14312;52.614;13.496;2022-08-30T08:15:39;101582.16;;;23.91;55.33
26697;BME280;14312;52.614;13.496;2022-08-30T08:18:25;101581.22;;;23.96;55.10
26697;BME280;14312;52.614;13.496;2022-08-30T08:21:11;101583.34;;;23.99;54.91
26697;BME280;14312;52.614;13.496;2022-08-30T08:23:57;101580.50;;;24.04;54.89
26697;BME280;14312;52.614;13.496;2022-08-30T08:26:43;101590.16;;;24.10;54.71
26697;BME280;14312;52.614;13.496;2022-08-30T08:29:29;101598.25;;;24.15;54.53
26697;BME280;14312;52.614;13.496;2022-08-30T08:32:14;101593.78;;;24.19;54.58
26697;BME280;14312;52.614;13.496;2022-08-30T08:35:00;101597.03;;;24.21;54.60
26697;BME280;14312;52.614;13.496;2022-08-30T08:37:46;101597.22;;;24.25;54.41
26697;BME280;14312;52.614;13.496;2022-08-30T08:40:51;101596.31;;;24.29;54.00
26697;BME280;14312;52.614;13.496;2022-08-30T08:43:40;101601.25;;;24.27;53.97
26697;BME280;14312;52.614;13.496;2022-08-30T08:46:30;101609.28;;;24.32;53.85
26697;BME280;14312;52.614;13.496;2022-08-30T08:49:20;101606.88;;;24.31;53.59
26697;BME280;14312;52.614;13.496;2022-08-30T08:52:13;101614.16;;;24.35;53.59
26697;BME280;14312;52.614;13.496;2022-08-30T08:55:21;101616.38;;;24.33;53.60
26697;BME280;14312;52.614;13.496;2022-08-30T08:58:23;101618.16;;;24.38;53.27
26697;BME280;14312;52.614;13.496;2022-08-30T09:01:12;101620.56;;;24.39;53.37
26697;BME280;14312;52.614;13.496;2022-08-30T09:04:07;101626.53;;;24.41;52.93
26697;BME280;14312;52.614;13.496;2022-08-30T09:07:00;101625.41;;;24.42;52.99
26697;BME280;14312;52.614;13.496;2022-08-30T09:09:48;101621.88;;;24.42;53.23
26697;BME280;14312;52.614;13.496;2022-08-30T09:12:34;101624.31;;;24.43;53.07
26697;BME280;14312;52.614;13.496;2022-08-30T09:15:25;101628.03;;;24.47;53.07
26697;BME280;14312;52.614;13.496;2022-08-30T09:18:11;101628.03;;;24.47;52.98
26697;BME280;14312;52.614;13.496;2022-08-30T09:21:04;101622.78;;;24.51;52.81
26697;BME280;14312;52.614;13.496;2022-08-30T09:24:02;101626.78;;;24.53;52.69
26697;BME280;14312;52.614;13.496;2022-08-30T09:26:55;101623.53;;;24.51;52.68
26697;BME280;14312;52.614;13.496;2022-08-30T09:29:53;101627.78;;;24.57;52.39
26697;BME280;14312;52.614;13.496;2022-08-30T09:32:50;101627.78;;;24.57;52.76
26697;BME280;14312;52.614;13.496;2022-08-30T09:35:43;101625.53;;;24.59;52.53
26697;BME280;14312;52.614;13.496;2022-08-30T09:38:32;101632.59;;;24.61;52.83
26697;BME280;14312;52.614;13.496;2022-08-30T09:41:28;101622.72;;;24.65;52.80
26697;BME280;14312;52.614;13.496;2022-08-30T09:44:24;101628.63;;;24.67;53.08
26697;BME280;14312;52.614;13.496;2022-08-30T09:47:21;101629.13;;;24.69;52.74
26697;BME280;14312;52.614;13.496;2022-08-30T09:50:18;101626.09;;;24.70;52.89
26697;BME280;14312;52.614;13.496;2022-08-30T09:53:15;101626.28;;;24.74;52.97
26697;BME280;14312;52.614;13.496;2022-08-30T09:56:09;101623.25;;;24.75;53.27
26697;BME280;14312;52.614;13.496;2022-08-30T09:59:20;101626.28;;;24.74;52.95
26697;BME280;14312;52.614;13.496;2022-08-30T10:02:19;101621.81;;;24.78;53.33
26697;BME280;14312;52.614;13.496;2022-08-30T10:05:30;101627.44;;;24.81;52.65
26697;BME280;14312;52.614;13.496;2022-08-30T10:08:40;101618.34;;;24.86;53.15
26697;BME280;14312;52.614;13.496;2022-08-30T10:11:35;101622.19;;;24.85;53.18
26697;BME280;14312;52.614;13.496;2022-08-30T10:14:28;101618.81;;;24.88;53.36
26697;BME280;14312;52.614;13.496;2022-08-30T10:17:32;101611.84;;;24.95;52.86
26697;BME280;14312;52.614;13.496;2022-08-30T10:24:15;101612.19;;;25.03;52.35
26697;BME280;14312;52.614;13.496;2022-08-30T10:27:08;101606.94;;;25.06;52.53
26697;BME280;14312;52.614;13.496;2022-08-30T10:30:05;101609.53;;;25.11;52.11
26697;BME280;14312;52.614;13.496;2022-08-30T10:33:13;101610.50;;;25.15;52.22
26697;BME280;14312;52.614;13.496;2022-08-30T10:36:05;101612.09;;;25.16;52.27
26697;BME280;14312;52.614;13.496;2022-08-30T10:38:54;101611.50;;;25.19;52.75
26697;BME280;14312;52.614;13.496;2022-08-30T10:41:48;101608.63;;;25.24;52.39
26697;BME280;14312;52.614;13.496;2022-08-30T10:44:38;101608.00;;;25.27;52.38
26697;BME280;14312;52.614;13.496;2022-08-30T10:50:36;101599.22;;;25.39;52.16
26697;BME280;14312;52.614;13.496;2022-08-30T10:53:31;101608.69;;;25.42;52.20
26697;BME280;14312;52.614;13.496;2022-08-30T10:56:22;101605.81;;;25.47;51.92
26697;BME280;14312;52.614;13.496;2022-08-30T10:59:09;101610.66;;;25.50;52.17
26697;BME280;14312;52.614;13.496;2022-08-30T11:02:19;101604.91;;;25.60;51.78
26697;BME280;14312;52.614;13.496;2022-08-30T11:09:05;101611.72;;;25.71;51.49
26697;BME280;14312;52.614;13.496;2022-08-30T11:12:30;101604.66;;;25.79;51.56
26697;BME280;14312;52.614;13.496;2022-08-30T11:15:20;101592.28;;;25.81;51.66
26697;BME280;14312;52.614;13.496;2022-08-30T11:21:22;101591.81;;;25.96;50.56
26697;BME280;14312;52.614;13.496;2022-08-30T11:24:11;101585.72;;;25.99;51.07
26697;BME280;14312;52.614;13.496;2022-08-30T11:26:59;101588.28;;;26.04;50.41
26697;BME280;14312;52.614;13.496;2022-08-30T11:29:46;101587.66;;;26.07;50.44
26697;BME280;14312;52.614;13.496;2022-08-30T11:33:05;101587.63;;;26.16;49.71
26697;BME280;14312;52.614;13.496;2022-08-30T11:36:11;101571.59;;;26.15;49.92
26697;BME280;14312;52.614;13.496;2022-08-30T11:39:43;101581.22;;;26.21;49.20
26697;BME280;14312;52.614;13.496;2022-08-30T11:43:47;101575.09;;;26.24;49.20
26697;BME280;14312;52.614;13.496;2022-08-30T11:46:35;101565.19;;;26.28;49.57
26697;BME280;14312;52.614;13.496;2022-08-30T11:49:47;101560.84;;;26.27;49.58
26697;BME280;14312;52.614;13.496;2022-08-30T11:59:29;101551.03;;;26.34;48.97
26697;BME280;14312;52.614;13.496;2022-08-30T12:02:44;101555.50;;;26.39;49.20
26697;BME280;14312;52.614;13.496;2022-08-30T12:14:05;101548.09;;;26.48;48.88
26697;BME280;14312;52.614;13.496;2022-08-30T12:16:51;101547.44;;;26.51;49.09
26697;BME280;14312;52.614;13.496;2022-08-30T12:19:57;101542.94;;;26.55;49.41
26697;BME280;14312;52.614;13.496;2022-08-30T12:22:44;101550.97;;;26.60;49.20
26697;BME280;14312;52.614;13.496;2022-08-30T12:25:32;101544.66;;;26.68;49.17
26697;BME280;14312;52.614;13.496;2022-08-30T12:28:24;101540.63;;;26.74;48.96
26697;BME280;14312;52.614;13.496;2022-08-30T12:31:24;101535.47;;;26.81;48.87
26697;BME280;14312;52.614;13.496;2022-08-30T12:34:24;101534.13;;;26.87;48.79
26697;BME280;14312;52.614;13.496;2022-08-30T12:37:22;101540.94;;;26.90;49.09
26697;BME280;14312;52.614;13.496;2022-08-30T12:40:13;101537.81;;;27.00;48.90
26697;BME280;14312;52.614;13.496;2022-08-30T12:43:03;101536.53;;;27.06;49.19
26697;BME280;14312;52.614;13.496;2022-08-30T12:45:49;101523.44;;;27.12;48.83
26697;BME280;14312;52.614;13.496;2022-08-30T12:48:37;101531.63;;;27.20;48.90
26697;BME280;14312;52.614;13.496;2022-08-30T12:51:34;101529.19;;;27.27;48.79
26697;BME280;14312;52.614;13.496;2022-08-30T12:54:25;101525.91;;;27.34;48.63
26697;BME280;14312;52.614;13.496;2022-08-30T12:57:34;101524.38;;;27.45;47.99
26697;BME280;14312;52.614;13.496;2022-08-30T13:03:28;101526.91;;;27.59;47.33
26697;BME280;14312;52.614;13.496;2022-08-30T13:06:36;101530.22;;;27.64;46.96
26697;BME280;14312;52.614;13.496;2022-08-30T13:09:28;101521.38;;;27.67;47.16
26697;BME280;14312;52.614;13.496;2022-08-30T13:12:24;101516.00;;;27.71;46.98
26697;BME280;14312;52.614;13.496;2022-08-30T13:15:15;101518.41;;;27.73;47.63
26697;BME280;14312;52.614;13.496;2022-08-30T13:21:18;101516.75;;;27.80;46.77
26697;BME280;14312;52.614;13.496;2022-08-30T13:24:05;101513.53;;;27.78;47.36
26697;BME280;14312;52.614;13.496;2022-08-30T13:26:57;101516.09;;;27.83;46.94
26697;BME280;14312;52.614;13.496;2022-08-30T13:29:46;101504.31;;;27.83;47.38
26697;BME280;14312;52.614;13.496;2022-08-30T13:32:32;101503.63;;;27.86;47.05
26697;BME280;14312;52.614;13.496;2022-08-30T13:35:22;101502.19;;;27.88;46.52
26697;BME280;14312;52.614;13.496;2022-08-30T13:38:08;101494.44;;;27.90;46.87
26697;BME280;14312;52.614;13.496;2022-08-30T13:40:54;101494.09;;;27.92;46.87
26697;BME280;14312;52.614;13.496;2022-08-30T13:43:39;101495.69;;;27.93;46.61
26697;BME280;14312;52.614;13.496;2022-08-30T13:46:25;101498.41;;;27.93;46.82
26697;BME280;14312;52.614;13.496;2022-08-30T13:49:18;101495.50;;;27.98;46.63
26697;BME280;14312;52.614;13.496;2022-08-30T13:52:06;101496.63;;;27.97;46.96
26697;BME280;14312;52.614;13.496;2022-08-30T13:54:54;101495.50;;;27.98;46.72
26697;BME280;14312;52.614;13.496;2022-08-30T13:57:40;101503.25;;;27.96;46.57
26697;BME280;14312;52.614;13.496;2022-08-30T14:00:26;101499.38;;;27.97;46.64
26697;BME280;14312;52.614;13.496;2022-08-30T14:03:13;101506.47;;;27.98;46.40
26697;BME280;14312;52.614;13.496;2022-08-30T14:05:58;101490.81;;;27.98;46.45
26697;BME280;14312;52.614;13.496;2022-08-30T14:08:44;101503.34;;;27.99;46.34
26697;BME280;14312;52.614;13.496;2022-08-30T14:11:30;101500.28;;;28.01;46.40
26697;BME280;14312;52.614;13.496;2022-08-30T14:14:16;101496.41;;;28.02;46.52
26697;BME280;14312;52.614;13.496;2022-08-30T14:17:02;101499.63;;;28.04;46.27
26697;BME280;14312;52.614;13.496;2022-08-30T14:19:47;101504.41;;;28.07;46.07
26697;BME280;14312;52.614;13.496;2022-08-30T14:22:33;101501.34;;;28.09;46.07
26697;BME280;14312;52.614;13.496;2022-08-30T14:25:19;101504.09;;;28.09;46.14
26697;BME280;14312;52.614;13.496;2022-08-30T14:28:05;101503.75;;;28.10;45.88
26697;BME280;14312;52.614;13.496;2022-08-30T14:30:51;101503.75;;;28.10;45.98
26697;BME280;14312;52.614;13.496;2022-08-30T14:33:37;101506.16;;;28.12;46.03
26697;BME280;14312;52.614;13.496;2022-08-30T14:36:23;101502.28;;;28.13;46.07
26697;BME280;14312;52.614;13.496;2022-08-30T14:39:12;101502.44;;;28.16;45.87
26697;BME280;14312;52.614;13.496;2022-08-30T14:41:59;101502.44;;;28.16;45.95
26697;BME280;14312;52.614;13.496;2022-08-30T14:44:45;101497.44;;;28.18;46.04
26697;BME280;14312;52.614;13.496;2022-08-30T14:47:31;101497.09;;;28.20;45.83
26697;BME280;14312;52.614;13.496;2022-08-30T14:50:17;101498.34;;;28.22;46.02
26697;BME280;14312;52.614;13.496;2022-08-30T14:53:04;101498.81;;;28.24;45.81
26697;BME280;14312;52.614;13.496;2022-08-30T14:55:50;101494.94;;;28.25;45.99
26697;BME280;14312;52.614;13.496;2022-08-30T14:58:36;101489.13;;;28.27;45.69
26697;BME280;14312;52.614;13.496;2022-08-30T15:01:22;101498.91;;;28.28;45.55
26697;BME280;14312;52.614;13.496;2022-08-30T15:04:08;101495.84;;;28.29;45.81
26697;BME280;14312;52.614;13.496;2022-08-30T15:06:54;101494.25;;;28.28;45.51
26697;BME280;14312;52.614;13.496;2022-08-30T15:09:40;101495.84;;;28.29;45.60
26697;BME280;14312;52.614;13.496;2022-08-30T15:12:27;101490.38;;;28.29;45.38